CST,Max TemperatureF,Mean TemperatureF,Min TemperatureF,Max Dew PointF,MeanDew PointF,Min DewpointF,Max Humidity, Mean Humidity, Min Humidity, Max Sea Level PressureIn, Mean Sea Level PressureIn, Min Sea Level PressureIn, Max VisibilityMiles, Mean VisibilityMiles, Min VisibilityMiles, Max Wind SpeedMPH, Mean Wind SpeedMPH, Max Gust SpeedMPH,PrecipitationIn, CloudCover, Events, WindDirDegrees
2012-11-1,84,66,48,52,48,45,87,58,29,30.07,30.00,29.93,10,10,5,14,5,18,0.00,0,,187
2012-11-2,87,69,51,61,54,48,94,63,25,30.02,29.96,29.92,10,10,10,20,7,23,0.00,0,,205
2012-11-3,80,69,60,64,56,41,100,67,43,30.10,30.04,29.98,10,10,10,13,8,16,0.00,1,,278
2012-11-4,66,60,53,54,50,41,94,75,51,30.18,30.12,30.08,10,10,9,16,7,20,0.14,3,Thunderstorm,80
2012-11-5,71,60,48,55,46,28,100,68,21,30.11,30.06,29.98,10,10,10,23,7,28,0.00,2,,4
2012-11-6,69,54,39,43,39,37,93,61,31,30.18,30.11,30.05,10,10,10,13,6,,0.00,0,,306
2012-11-7,69,56,42,43,35,28,87,51,21,30.21,30.14,30.11,10,9,1,12,5,17,0.00,0,,347
2012-11-8,75,60,44,50,42,34,76,56,41,30.20,30.10,30.03,10,10,2,17,11,25,0.00,0,,131
2012-11-9,80,68,55,61,56,48,94,70,47,30.10,30.03,29.97,10,10,10,25,13,36,0.00,1,,162
2012-11-10,78,69,60,61,58,54,94,70,47,30.09,29.99,29.91,10,10,10,26,14,31,0.00,5,,161
2012-11-11,71,56,42,70,55,36,100,83,73,30.26,29.98,29.84,10,10,3,25,16,32,0.36,7,Thunderstorm,259
2012-11-12,55,44,33,36,25,19,87,54,25,30.51,30.44,30.27,10,10,8,15,10,22,0.00,0,,11
2012-11-13,57,44,30,34,26,21,87,55,25,30.55,30.46,30.38,10,10,10,14,4,18,0.00,1,,89
2012-11-14,59,46,33,34,29,25,81,53,29,30.47,30.39,30.31,10,9,0,8,5,,0.00,1,,111
2012-11-15,57,45,33,36,30,14,87,60,21,30.38,30.33,30.28,10,10,7,8,5,,0.00,0,,113
2012-11-16,62,48,33,36,30,27,93,56,26,30.45,30.39,30.35,10,10,10,9,4,,0.00,0,,63
2012-11-17,64,50,35,34,30,27,81,50,24,30.45,30.38,30.32,10,10,2,13,7,,0.00,0,,108
2012-11-18,69,54,39,37,35,32,81,55,28,30.37,30.30,30.23,10,10,4,14,9,18,0.00,0,,128
2012-11-19,71,61,51,48,43,37,67,52,38,30.28,30.22,30.16,10,9,0,14,8,18,0.00,7,,152
2012-11-20,77,64,50,54,49,45,82,63,41,30.24,30.19,30.14,10,8,0,8,4,,0.00,1,,68
2012-11-21,75,60,44,52,45,39,100,64,29,30.31,30.22,30.17,10,10,2,13,5,,0.00,0,,119
2012-11-22,73,58,44,54,47,41,87,64,38,30.17,30.12,30.05,10,10,10,24,9,28,0.00,1,,165
2012-11-23,62,50,39,54,33,19,94,48,20,30.44,30.34,30.13,10,10,10,31,11,37,0.00,2,,5
2012-11-24,59,44,28,25,21,19,75,45,22,30.42,30.31,30.15,10,10,10,12,7,,0.00,0,,159
2012-11-25,71,52,33,46,37,25,76,58,32,30.15,29.99,29.89,10,10,10,22,10,26,0.00,0,,159
2012-11-26,75,60,46,61,50,37,100,77,47,30.23,30.00,29.91,10,10,10,25,10,30,0.00,6,,135
2012-11-27,57,48,37,37,33,28,71,57,33,30.43,30.34,30.24,10,10,10,15,9,21,0.00,2,,18
2012-11-28,60,46,32,36,31,27,93,61,34,30.49,30.38,30.30,10,10,10,13,6,16,0.00,0,,125
2012-11-29,66,50,35,43,35,30,87,60,30,30.31,30.23,30.15,10,10,10,16,10,20,0.00,0,,132
2012-11-30,66,55,44,59,50,36,94,79,71,30.21,30.14,30.09,10,10,10,13,9,16,0.00,6,,138